Time;durP1;ratioP1;P1;durP2;ratioP2;P2;SDS_P1;SDS_P2;PMS_P1;PMS_P2;Temp;Humidity;BMP_temperature;BMP_pressure;BME280_temperature;BME280_humidity;BME280_pressure;Samples;Min_cycle;Max_cycle;Signal;HPM_P1;HPM_P2
2024/03/31 00:00:13;;;;;;;29.50;5.17;;;11.60;99.90;;;;;;5031716;28;20194;-63
2024/03/31 00:02:40;;;;;;;27.43;5.70;;;11.50;99.90;;;;;;5029269;28;20198;-63
2024/03/31 00:05:06;;;;;;;44.20;8.17;;;11.50;99.90;;;;;;5032572;28;20222;-63
2024/03/31 00:07:33;;;;;;;32.47;7.07;;;11.40;99.90;;;;;;5031719;28;20326;-63
2024/03/31 00:10:03;;;;;;;30.57;5.57;;;11.40;99.90;;;;;;5031340;28;20262;-62
2024/03/31 00:12:31;;;;;;;22.23;5.00;;;11.30;99.90;;;;;;5030687;28;20296;-63
2024/03/31 00:14:57;;;;;;;43.43;7.13;;;11.20;99.90;;;;;;5028308;28;20275;-63
2024/03/31 00:17:24;;;;;;;35.63;5.63;;;11.10;99.90;;;;;;5031094;28;20189;-63
2024/03/31 00:19:50;;;;;;;40.87;7.23;;;11.10;99.90;;;;;;5030727;28;20253;-62
2024/03/31 00:22:17;;;;;;;25.97;5.03;;;11.10;99.90;;;;;;5031059;28;20196;-63
2024/03/31 00:24:43;;;;;;;28.20;6.60;;;11.10;99.90;;;;;;5031826;28;20241;-62
2024/03/31 00:27:12;;;;;;;30.47;5.63;;;11.00;99.90;;;;;;5030988;28;20228;-62
2024/03/31 00:29:39;;;;;;;27.20;5.53;;;11.00;99.90;;;;;;5029168;28;20209;-63
2024/03/31 00:32:06;;;;;;;49.23;6.30;;;11.00;99.90;;;;;;5023828;28;20238;-63
2024/03/31 00:34:32;;;;;;;26.17;4.57;;;11.00;99.90;;;;;;5009889;28;20586;-63
2024/03/31 00:36:59;;;;;;;24.13;4.60;;;11.00;99.90;;;;;;5026035;28;20255;-63
2024/03/31 00:39:25;;;;;;;25.23;3.97;;;10.90;99.90;;;;;;5027832;28;20870;-63
2024/03/31 00:41:52;;;;;;;26.73;4.70;;;10.90;99.90;;;;;;5030396;28;20201;-63
2024/03/31 00:44:20;;;;;;;31.73;5.10;;;10.80;99.90;;;;;;5031029;28;20284;-63
2024/03/31 00:46:47;;;;;;;27.23;4.37;;;10.80;99.90;;;;;;5014897;28;20220;-62
2024/03/31 00:49:13;;;;;;;22.07;4.43;;;10.70;99.90;;;;;;5031037;28;20208;-63
2024/03/31 00:51:40;;;;;;;22.60;4.60;;;10.70;99.90;;;;;;5032030;28;20207;-63
2024/03/31 00:54:06;;;;;;;22.30;4.20;;;10.70;99.90;;;;;;5029641;28;20213;-63
2024/03/31 00:56:33;;;;;;;20.60;3.37;;;10.70;99.90;;;;;;5031003;28;20220;-62
2024/03/31 00:58:59;;;;;;;27.23;4.70;;;10.60;99.90;;;;;;5030819;28;20269;-63
2024/03/31 01:01:27;;;;;;;25.50;4.87;;;10.40;99.90;;;;;;5030671;28;20194;-63
2024/03/31 01:03:53;;;;;;;30.00;4.63;;;10.30;99.90;;;;;;5031251;28;20638;-63
2024/03/31 01:06:23;;;;;;;25.73;4.90;;;10.30;99.90;;;;;;5029106;28;20225;-63
2024/03/31 01:08:51;;;;;;;25.83;4.33;;;10.10;99.90;;;;;;5030751;28;20227;-63
2024/03/31 01:11:18;;;;;;;28.90;4.73;;;10.00;99.90;;;;;;5032029;28;20212;-63
2024/03/31 01:13:46;;;;;;;34.13;4.33;;;10.00;99.90;;;;;;5030770;28;20259;-62
2024/03/31 01:16:13;;;;;;;16.47;3.67;;;10.00;99.90;;;;;;5019637;28;20721;-63
2024/03/31 01:18:41;;;;;;;22.57;4.23;;;10.00;99.90;;;;;;5030136;28;20193;-63
2024/03/31 01:21:10;;;;;;;23.57;4.97;;;9.90;99.90;;;;;;5031772;28;20197;-63
2024/03/31 01:23:45;;;;;;;20.13;4.63;;;10.00;99.90;;;;;;5031331;28;20701;-63
2024/03/31 01:26:13;;;;;;;15.47;3.70;;;9.90;99.90;;;;;;5032226;28;20312;-62
2024/03/31 01:28:39;;;;;;;18.50;2.23;;;9.90;99.90;;;;;;5032226;28;20269;-62
2024/03/31 01:31:06;;;;;;;7.10;2.10;;;10.00;99.90;;;;;;5032094;28;20224;-62
2024/03/31 01:33:32;;;;;;;9.30;1.60;;;10.00;99.90;;;;;;5033012;28;20610;-62
2024/03/31 01:36:01;;;;;;;7.00;0.67;;;10.10;99.90;;;;;;5035353;28;20293;-62
2024/03/31 01:38:27;;;;;;;7.00;0.80;;;10.20;99.90;;;;;;5023439;28;20240;-62
2024/03/31 01:40:54;;;;;;;7.10;0.60;;;10.20;99.90;;;;;;5034857;28;20291;-62
2024/03/31 01:43:21;;;;;;;6.70;0.47;;;10.20;99.90;;;;;;5034610;28;20199;-63
2024/03/31 01:45:49;;;;;;;1.90;0.60;;;10.20;99.90;;;;;;5034695;28;20712;-61
2024/03/31 01:48:15;;;;;;;6.77;0.67;;;10.20;99.90;;;;;;5033958;28;20712;-62
2024/03/31 01:50:42;;;;;;;1.70;1.03;;;10.30;99.90;;;;;;5035253;28;20204;-62
2024/03/31 01:53:08;;;;;;;3.37;0.30;;;10.50;99.90;;;;;;5034639;28;20209;-62
2024/03/31 01:55:35;;;;;;;0.83;0.20;;;10.60;99.90;;;;;;5031854;28;20605;-63
2024/03/31 01:58:01;;;;;;;1.77;0.20;;;10.70;99.90;;;;;;5030411;28;20639;-62
2024/03/31 02:00:29;;;;;;;0.60;0.20;;;10.70;99.90;;;;;;5014913;28;20206;-62
2024/03/31 02:02:55;;;;;;;3.03;0.40;;;10.70;99.90;;;;;;5021031;28;20203;-63
2024/03/31 02:05:23;;;;;;;0.50;0.30;;;10.80;99.90;;;;;;5034563;28;20224;-63
2024/03/31 02:07:50;;;;;;;4.17;0.90;;;10.80;99.90;;;;;;5031774;28;20657;-63
2024/03/31 02:10:17;;;;;;;0.77;0.17;;;10.80;99.90;;;;;;5033521;28;20288;-63
2024/03/31 02:12:43;;;;;;;2.03;0.40;;;10.70;99.90;;;;;;5034509;28;20208;-62
2024/03/31 02:15:11;;;;;;;3.57;1.47;;;10.60;99.90;;;;;;5034475;28;20217;-62
2024/03/31 02:17:38;;;;;;;6.63;0.97;;;10.50;99.90;;;;;;5033751;28;20195;-63
2024/03/31 02:20:07;;;;;;;9.43;0.80;;;10.40;99.90;;;;;;5033392;28;20220;-62
2024/03/31 02:22:33;;;;;;;4.70;1.07;;;10.30;99.90;;;;;;5034390;28;20249;-63
2024/03/31 02:25:00;;;;;;;8.50;1.20;;;10.30;99.90;;;;;;5033668;28;20228;-64
2024/03/31 02:27:26;;;;;;;8.93;1.90;;;10.30;99.90;;;;;;5033573;28;20230;-63
2024/03/31 02:29:53;;;;;;;10.33;1.60;;;10.20;99.90;;;;;;5034048;28;20615;-63
2024/03/31 02:32:19;;;;;;;10.87;1.80;;;10.00;99.90;;;;;;5032950;28;20740;-62
2024/03/31 02:34:47;;;;;;;11.70;2.10;;;9.90;99.90;;;;;;5033348;28;20300;-63
2024/03/31 02:37:13;;;;;;;13.10;2.30;;;9.80;99.90;;;;;;5032954;28;20204;-63
2024/03/31 02:39:40;;;;;;;16.97;2.10;;;9.80;99.90;;;;;;5032055;28;20244;-63
2024/03/31 02:42:06;;;;;;;15.40;2.83;;;9.80;99.90;;;;;;5033861;28;20205;-63
2024/03/31 02:44:33;;;;;;;12.27;3.30;;;9.80;99.90;;;;;;5029365;28;20252;-63
2024/03/31 02:47:01;;;;;;;12.30;2.20;;;9.70;99.90;;;;;;5032992;28;20199;-63
2024/03/31 02:49:26;;;;;;;12.00;1.90;;;9.70;99.90;;;;;;5033046;28;20540;-62
2024/03/31 02:51:55;;;;;;;7.07;1.90;;;9.80;99.90;;;;;;5033503;28;20660;-62
2024/03/31 02:54:21;;;;;;;8.70;2.53;;;9.80;99.90;;;;;;5034309;28;20739;-62
2024/03/31 02:56:48;;;;;;;11.77;2.10;;;9.70;99.90;;;;;;5033608;28;20200;-63
2024/03/31 02:59:14;;;;;;;15.37;1.93;;;9.70;99.90;;;;;;5033188;28;20208;-62
2024/03/31 03:01:41;;;;;;;5.37;1.17;;;9.70;99.90;;;;;;5033851;28;20645;-63
2024/03/31 03:04:07;;;;;;;7.87;1.27;;;9.80;99.90;;;;;;5032385;28;20258;-63
2024/03/31 03:06:34;;;;;;;10.37;0.80;;;9.80;99.90;;;;;;5033664;28;20214;-62
2024/03/31 03:09:03;;;;;;;8.67;0.50;;;9.80;99.90;;;;;;5032404;28;20272;-63
2024/03/31 03:11:30;;;;;;;3.53;0.40;;;9.80;99.90;;;;;;5033584;28;20236;-63
2024/03/31 03:13:56;;;;;;;3.90;0.30;;;10.00;99.90;;;;;;5033302;28;20198;-62
2024/03/31 03:16:23;;;;;;;2.93;0.30;;;10.10;99.90;;;;;;5029867;28;20269;-63
2024/03/31 03:18:50;;;;;;;5.83;0.70;;;10.20;99.90;;;;;;5032333;28;20191;-62
2024/03/31 03:21:17;;;;;;;5.13;0.50;;;10.30;99.90;;;;;;5033009;28;20212;-63
2024/03/31 03:23:43;;;;;;;1.47;0.20;;;10.50;99.90;;;;;;5033534;28;20220;-62
2024/03/31 03:26:12;;;;;;;3.33;0.50;;;10.80;99.90;;;;;;5032682;28;20655;-62
2024/03/31 03:28:38;;;;;;;2.07;0.10;;;10.90;99.90;;;;;;5034002;28;20220;-62
2024/03/31 03:31:05;;;;;;;1.60;0.20;;;11.00;99.90;;;;;;5032941;28;20207;-63
2024/03/31 03:33:31;;;;;;;0.23;0.10;;;11.00;99.90;;;;;;5032721;28;20275;-62
2024/03/31 03:36:02;;;;;;;1.73;0.23;;;11.00;99.90;;;;;;5032999;28;20349;-62
2024/03/31 03:38:29;;;;;;;2.00;0.20;;;11.10;99.90;;;;;;5032197;28;20202;-62
2024/03/31 03:40:56;;;;;;;1.73;0.10;;;11.30;99.90;;;;;;5031195;28;20661;-62
2024/03/31 03:43:25;;;;;;;1.90;0.23;;;11.30;99.90;;;;;;5032500;28;20200;-65
2024/03/31 03:45:51;;;;;;;0.93;0.10;;;11.40;99.90;;;;;;5032849;28;20246;-62
2024/03/31 03:48:18;;;;;;;1.17;0.10;;;11.50;99.90;;;;;;5031789;28;20627;-62
2024/03/31 03:50:44;;;;;;;0.10;0.00;;;11.50;99.90;;;;;;5032750;28;20258;-62
2024/03/31 03:53:11;;;;;;;5.70;0.73;;;11.40;99.90;;;;;;5032487;28;20205;-62
2024/03/31 03:55:37;;;;;;;2.40;0.10;;;11.40;99.90;;;;;;5032045;28;20275;-62
2024/03/31 03:58:04;;;;;;;0.90;0.10;;;11.40;99.90;;;;;;5031536;28;20611;-62
2024/03/31 04:00:32;;;;;;;0.83;0.00;;;11.50;99.90;;;;;;5032495;28;20192;-62
2024/03/31 04:02:59;;;;;;;1.40;0.10;;;11.40;99.90;;;;;;5032435;28;20216;-62
2024/03/31 04:05:25;;;;;;;0.10;0.10;;;11.40;99.90;;;;;;5029205;28;20221;-62
2024/03/31 04:07:52;;;;;;;0.60;0.10;;;11.40;99.90;;;;;;5026199;28;20224;-62
2024/03/31 04:10:18;;;;;;;0.97;0.10;;;11.30;99.90;;;;;;5031997;28;20199;-63
2024/03/31 04:12:45;;;;;;;1.30;0.13;;;11.20;99.90;;;;;;5032597;28;20197;-62
2024/03/31 04:15:11;;;;;;;1.90;1.67;;;11.20;99.90;;;;;;5031061;28;20278;-63
2024/03/31 04:17:39;;;;;;;1.13;0.10;;;11.30;99.90;;;;;;5029054;28;20604;-63
2024/03/31 04:20:06;;;;;;;1.23;0.10;;;11.30;99.90;;;;;;5032070;28;20201;-62
2024/03/31 04:22:33;;;;;;;0.10;0.10;;;11.40;99.90;;;;;;5032115;28;20244;-62
2024/03/31 04:24:59;;;;;;;1.07;0.10;;;11.30;99.90;;;;;;5031982;28;20286;-62
2024/03/31 04:27:26;;;;;;;0.73;0.10;;;11.50;99.90;;;;;;5024639;28;20198;-63
2024/03/31 04:29:52;;;;;;;1.40;0.10;;;11.60;99.90;;;;;;5030503;28;20197;-63
2024/03/31 04:32:19;;;;;;;0.70;0.00;;;11.70;99.90;;;;;;5031089;28;20262;-63
2024/03/31 04:34:46;;;;;;;0.40;0.10;;;11.70;99.90;;;;;;5031925;28;20233;-62
2024/03/31 04:37:13;;;;;;;0.27;0.10;;;11.70;99.90;;;;;;5031326;28;20291;-63
2024/03/31 04:39:39;;;;;;;0.67;0.10;;;11.90;99.90;;;;;;5031747;28;20197;-63
2024/03/31 04:42:06;;;;;;;0.00;0.00;;;11.90;99.90;;;;;;5031949;28;20266;-62
2024/03/31 04:44:32;;;;;;;0.20;0.20;;;12.10;99.90;;;;;;5030609;28;20263;-65
2024/03/31 04:46:59;;;;;;;1.13;0.10;;;12.20;99.90;;;;;;5030683;28;20204;-63
2024/03/31 04:49:25;;;;;;;1.30;0.03;;;12.20;99.90;;;;;;5029808;28;20272;-62
2024/03/31 04:51:54;;;;;;;2.53;0.13;;;12.30;99.90;;;;;;5024938;28;20201;-62
2024/03/31 04:54:20;;;;;;;1.30;0.93;;;12.30;99.90;;;;;;5029883;28;20734;-62
2024/03/31 04:56:47;;;;;;;0.10;0.00;;;12.40;99.90;;;;;;5029535;28;20210;-62
2024/03/31 04:59:13;;;;;;;0.23;0.00;;;12.40;99.90;;;;;;5025043;28;20204;-63
2024/03/31 05:01:40;;;;;;;0.00;0.00;;;12.50;99.90;;;;;;5031350;28;20245;-62
2024/03/31 05:04:06;;;;;;;0.23;0.07;;;12.40;99.90;;;;;;5032212;28;20592;-63
2024/03/31 05:06:33;;;;;;;0.43;0.20;;;12.40;99.90;;;;;;5032437;28;20216;-62
2024/03/31 05:09:01;;;;;;;0.40;0.00;;;12.50;99.90;;;;;;5035198;28;20322;-63
2024/03/31 05:11:28;;;;;;;0.50;0.10;;;12.70;99.90;;;;;;5030097;28;20715;-63
2024/03/31 05:13:54;;;;;;;1.33;0.10;;;12.90;99.90;;;;;;5035508;28;20248;-62
2024/03/31 05:16:21;;;;;;;0.20;0.10;;;13.00;99.90;;;;;;5035382;28;20237;-62
2024/03/31 05:18:51;;;;;;;2.20;0.10;;;12.80;99.90;;;;;;5034151;28;20665;-62
2024/03/31 05:21:18;;;;;;;2.00;0.30;;;12.40;99.90;;;;;;5039515;28;20618;-62
2024/03/31 05:23:46;;;;;;;2.20;0.27;;;11.90;99.90;;;;;;5035586;28;20763;-62
2024/03/31 05:26:15;;;;;;;0.83;0.43;;;11.80;99.90;;;;;;5033780;28;20319;-62
2024/03/31 05:28:41;;;;;;;1.67;0.10;;;11.60;99.90;;;;;;5034426;28;20272;-63
2024/03/31 05:31:08;;;;;;;0.50;0.30;;;11.30;99.90;;;;;;5033723;28;20200;-62
2024/03/31 05:33:34;;;;;;;4.10;0.20;;;11.10;99.90;;;;;;5034873;28;20278;-63
2024/03/31 05:36:01;;;;;;;0.87;0.30;;;10.90;99.90;;;;;;5033756;28;20238;-63
2024/03/31 05:38:27;;;;;;;3.13;1.00;;;10.80;99.90;;;;;;5034741;28;20732;-63
2024/03/31 05:40:55;;;;;;;5.83;0.90;;;10.80;99.90;;;;;;5034979;28;20197;-63
2024/03/31 05:43:23;;;;;;;9.67;1.10;;;10.90;99.90;;;;;;5034890;28;20204;-62
2024/03/31 05:45:51;;;;;;;13.40;2.37;;;10.80;99.90;;;;;;5033346;28;20215;-62
2024/03/31 05:48:17;;;;;;;10.20;1.80;;;10.70;99.90;;;;;;5028855;28;20260;-62
2024/03/31 05:50:44;;;;;;;7.30;1.40;;;10.70;99.90;;;;;;5031129;28;20212;-63
2024/03/31 05:53:10;;;;;;;10.70;2.27;;;10.80;99.90;;;;;;5034231;28;20202;-62
2024/03/31 05:55:37;;;;;;;8.20;1.50;;;10.80;99.90;;;;;;5038328;28;20216;-63
2024/03/31 05:58:04;;;;;;;7.70;2.10;;;11.00;99.90;;;;;;5033734;28;20252;-63
2024/03/31 06:00:32;;;;;;;12.80;1.43;;;11.40;99.90;;;;;;5034610;28;20195;-63
2024/03/31 06:02:58;;;;;;;5.67;2.57;;;12.30;99.90;;;;;;5034467;28;20201;-63
2024/03/31 06:05:25;;;;;;;13.57;2.60;;;13.20;99.90;;;;;;5034072;28;20304;-62
2024/03/31 06:07:52;;;;;;;7.13;1.10;;;14.00;99.90;;;;;;5033186;28;20198;-63
2024/03/31 06:10:19;;;;;;;9.60;1.77;;;15.00;99.90;;;;;;5034323;28;20251;-63
2024/03/31 06:12:45;;;;;;;6.27;1.33;;;15.90;99.90;;;;;;5034247;28;20205;-63
2024/03/31 06:15:13;;;;;;;10.50;1.33;;;15.90;99.90;;;;;;5032317;28;20222;-63
2024/03/31 06:17:40;;;;;;;8.63;1.13;;;15.80;99.90;;;;;;5030330;28;20207;-63
2024/03/31 06:20:08;;;;;;;8.43;2.30;;;16.20;99.90;;;;;;5033868;28;20207;-62
2024/03/31 06:22:38;;;;;;;7.07;1.23;;;16.70;99.90;;;;;;5033064;28;20210;-63
2024/03/31 06:25:06;;;;;;;12.57;1.30;;;16.90;99.90;;;;;;5033618;28;20235;-63
2024/03/31 06:27:32;;;;;;;9.47;1.90;;;16.70;99.90;;;;;;5025138;28;20284;-63
2024/03/31 06:29:59;;;;;;;10.57;1.77;;;16.60;99.90;;;;;;5034463;28;20306;-63
2024/03/31 06:32:25;;;;;;;12.90;2.07;;;17.00;99.90;;;;;;5033348;28;20203;-63
2024/03/31 06:34:53;;;;;;;11.23;1.90;;;16.30;99.90;;;;;;5032569;28;20334;-63
2024/03/31 06:37:20;;;;;;;8.90;1.97;;;16.40;99.90;;;;;;5030163;28;20210;-62
2024/03/31 06:39:47;;;;;;;15.30;2.13;;;16.70;99.90;;;;;;5033294;28;20191;-62
2024/03/31 06:42:15;;;;;;;9.47;1.90;;;17.20;99.90;;;;;;5031185;28;20214;-63
2024/03/31 06:44:42;;;;;;;11.07;2.23;;;17.00;99.90;;;;;;5033381;28;20237;-63
2024/03/31 06:47:09;;;;;;;11.13;1.67;;;16.70;99.90;;;;;;5037157;28;20198;-63
2024/03/31 06:49:36;;;;;;;14.03;2.17;;;16.30;99.90;;;;;;5031164;28;20233;-64
2024/03/31 06:52:04;;;;;;;13.97;1.73;;;16.00;99.90;;;;;;5032998;28;20194;-63
2024/03/31 06:54:31;;;;;;;13.23;2.70;;;15.40;99.90;;;;;;5030995;28;20209;-62
2024/03/31 06:56:57;;;;;;;7.90;1.63;;;15.20;99.90;;;;;;5032429;28;20202;-64
2024/03/31 06:59:24;;;;;;;6.73;1.03;;;15.10;99.90;;;;;;5032907;28;20211;-63
2024/03/31 07:01:50;;;;;;;7.03;1.10;;;14.90;99.90;;;;;;5032437;28;20199;-65
2024/03/31 07:04:17;;;;;;;6.30;1.10;;;14.70;99.90;;;;;;5033667;28;20666;-65
2024/03/31 07:06:45;;;;;;;8.80;1.40;;;14.70;99.90;;;;;;5032747;28;20729;-63
2024/03/31 07:09:14;;;;;;;3.50;1.00;;;14.80;99.90;;;;;;5032224;28;20228;-64
2024/03/31 07:11:40;;;;;;;5.13;1.70;;;14.70;99.90;;;;;;5033214;28;20207;-64
2024/03/31 07:14:07;;;;;;;9.63;5.47;;;14.70;99.90;;;;;;5032858;28;20198;-65
2024/03/31 07:16:33;;;;;;;8.53;3.80;;;14.70;99.90;;;;;;5032711;28;20222;-64
2024/03/31 07:19:00;;;;;;;10.33;2.27;;;14.80;99.90;;;;;;5031820;28;20202;-65
2024/03/31 07:21:26;;;;;;;5.93;1.25;;;14.70;99.90;;;;;;5032826;28;20437;-61
2024/03/31 07:23:53;;;;;;;3.77;1.47;;;14.80;99.90;;;;;;5032373;28;20199;-62
2024/03/31 07:26:20;;;;;;;4.77;1.43;;;14.80;99.90;;;;;;5031580;28;20791;-63
2024/03/31 07:28:47;;;;;;;2.83;0.80;;;14.70;99.90;;;;;;5031869;28;20351;-63
2024/03/31 07:31:14;;;;;;;3.93;1.67;;;14.70;99.90;;;;;;5031631;28;20202;-63
2024/03/31 07:33:41;;;;;;;4.80;0.80;;;14.80;99.90;;;;;;5033078;28;20733;-63
2024/03/31 07:36:07;;;;;;;5.50;1.30;;;14.70;99.90;;;;;;5031881;28;20713;-63
2024/03/31 07:38:34;;;;;;;5.30;1.83;;;14.70;99.90;;;;;;5029924;28;20277;-63
2024/03/31 07:41:03;;;;;;;5.57;0.77;;;14.70;99.90;;;;;;5020448;28;20245;-63
2024/03/31 07:43:31;;;;;;;4.00;0.97;;;14.80;99.90;;;;;;5032031;28;20194;-63
2024/03/31 07:45:57;;;;;;;4.40;0.73;;;14.90;99.90;;;;;;5029142;28;20219;-63
2024/03/31 07:48:24;;;;;;;5.07;1.17;;;15.00;99.90;;;;;;5029620;28;20694;-63
2024/03/31 07:50:50;;;;;;;3.50;0.80;;;15.00;99.90;;;;;;5032486;28;20410;-64
2024/03/31 07:53:17;;;;;;;2.90;1.07;;;15.10;99.90;;;;;;5032454;28;20277;-64
2024/03/31 07:55:43;;;;;;;5.17;1.30;;;15.20;99.90;;;;;;5037051;28;20218;-64
2024/03/31 07:58:10;;;;;;;6.57;1.10;;;15.30;99.90;;;;;;5030660;28;20202;-65
2024/03/31 08:00:38;;;;;;;4.73;0.97;;;15.40;99.90;;;;;;5030668;28;20621;-65
2024/03/31 08:03:05;;;;;;;6.97;0.80;;;15.60;99.90;;;;;;5030173;28;20224;-66
2024/03/31 08:05:31;;;;;;;2.47;1.07;;;15.50;99.90;;;;;;5030095;28;20221;-65
2024/03/31 08:07:58;;;;;;;2.77;0.90;;;15.80;99.90;;;;;;5028872;28;20249;-66
2024/03/31 08:10:24;;;;;;;6.03;1.50;;;15.70;99.90;;;;;;5030422;28;20222;-62
2024/03/31 08:12:51;;;;;;;3.97;1.27;;;15.40;99.90;;;;;;5029997;28;20619;-66
2024/03/31 08:15:17;;;;;;;4.43;1.83;;;15.80;99.90;;;;;;5032347;28;20226;-65
2024/03/31 08:17:45;;;;;;;8.10;2.30;;;16.00;99.90;;;;;;5031108;28;20240;-65
2024/03/31 08:20:11;;;;;;;7.50;2.37;;;16.40;99.90;;;;;;5031307;28;20195;-65
2024/03/31 08:22:38;;;;;;;4.00;1.60;;;16.50;99.90;;;;;;5029276;28;20436;-65
2024/03/31 08:25:04;;;;;;;4.20;1.20;;;16.70;99.90;;;;;;5030941;28;20280;-65
2024/03/31 08:27:32;;;;;;;2.20;1.87;;;16.90;99.90;;;;;;5030224;28;20195;-65
2024/03/31 08:29:57;;;;;;;5.90;2.57;;;16.90;99.90;;;;;;5032620;28;20218;-65
2024/03/31 08:32:25;;;;;;;3.10;1.77;;;16.90;99.90;;;;;;5030460;28;20208;-65
2024/03/31 08:34:55;;;;;;;8.73;1.63;;;17.00;99.90;;;;;;5024185;28;20222;-65
2024/03/31 08:37:23;;;;;;;7.03;5.03;;;17.50;99.90;;;;;;5029607;28;20622;-64
2024/03/31 08:39:49;;;;;;;3.23;0.70;;;17.90;99.90;;;;;;5031827;28;20716;-65
2024/03/31 08:42:22;;;;;;;3.67;1.17;;;18.70;99.90;;;;;;5030554;28;20295;-65
2024/03/31 08:44:48;;;;;;;2.37;0.70;;;19.30;99.90;;;;;;5030718;28;20228;-66
2024/03/31 08:47:24;;;;;;;1.23;0.50;;;19.20;99.90;;;;;;5029820;28;20289;-65
2024/03/31 08:49:50;;;;;;;1.13;0.80;;;19.20;99.90;;;;;;5031309;28;20222;-65
2024/03/31 08:52:19;;;;;;;7.97;1.10;;;18.80;99.90;;;;;;5030820;28;20230;-66
2024/03/31 08:54:47;;;;;;;0.70;0.40;;;18.50;99.90;;;;;;5028984;28;20256;-64
2024/03/31 08:57:14;;;;;;;3.47;0.60;;;18.20;99.90;;;;;;5029834;28;20238;-70
2024/03/31 08:59:40;;;;;;;3.33;0.70;;;18.20;99.90;;;;;;5026254;28;20217;-66
2024/03/31 09:02:13;;;;;;;7.30;0.53;;;18.00;99.90;;;;;;5035393;28;20650;-66
2024/03/31 09:04:39;;;;;;;1.30;0.57;;;17.90;99.90;;;;;;5027991;28;20233;-72
2024/03/31 09:07:07;;;;;;;1.33;0.30;;;17.80;99.90;;;;;;5029279;28;20691;-67
2024/03/31 09:09:39;;;;;;;0.67;0.30;;;17.90;99.90;;;;;;5031319;28;20214;-65
2024/03/31 09:12:06;;;;;;;0.73;0.40;;;18.30;99.90;;;;;;5031307;28;20191;-66
2024/03/31 09:14:32;;;;;;;1.27;0.97;;;18.80;99.90;;;;;;5027013;28;20688;-65
2024/03/31 09:17:00;;;;;;;3.50;0.50;;;19.40;99.90;;;;;;5030213;28;20574;-65
2024/03/31 09:19:26;;;;;;;1.67;0.93;;;19.80;99.90;;;;;;5027854;28;20195;-65
2024/03/31 09:21:53;;;;;;;1.07;0.40;;;20.20;99.90;;;;;;5030298;28;20249;-68
2024/03/31 09:24:19;;;;;;;1.20;0.40;;;20.40;99.90;;;;;;5027821;28;20200;-66
2024/03/31 09:26:48;;;;;;;1.43;0.57;;;20.80;99.90;;;;;;5024680;28;20219;-67
2024/03/31 09:29:14;;;;;;;2.30;0.57;;;21.10;99.90;;;;;;5031635;28;20633;-70
2024/03/31 09:31:41;;;;;;;1.27;0.30;;;21.00;99.90;;;;;;5027123;28;20217;-69
2024/03/31 09:34:07;;;;;;;2.57;0.30;;;21.20;99.90;;;;;;5029737;28;20210;-71
2024/03/31 09:36:37;;;;;;;0.93;0.23;;;20.80;99.90;;;;;;5029513;28;20224;-73
2024/03/31 09:39:03;;;;;;;1.60;1.00;;;20.70;99.90;;;;;;5029870;28;20230;-68
2024/03/31 09:41:30;;;;;;;0.47;0.17;;;20.50;99.90;;;;;;5029865;28;20202;-66
2024/03/31 09:44:00;;;;;;;2.37;0.20;;;20.70;99.90;;;;;;5030520;28;20194;-70
2024/03/31 09:46:27;;;;;;;2.30;0.47;;;20.80;99.90;;;;;;5020694;28;20261;-72
2024/03/31 09:49:01;;;;;;;0.30;0.20;;;20.80;99.90;;;;;;5029685;28;20203;-66
2024/03/31 09:51:34;;;;;;;0.50;0.10;;;21.10;99.90;;;;;;5025781;28;20198;-65
2024/03/31 09:54:02;;;;;;;0.40;0.10;;;20.90;99.90;;;;;;5032690;28;20203;-65
2024/03/31 09:56:36;;;;;;;1.40;0.10;;;20.60;99.90;;;;;;5035191;28;20215;-76
2024/03/31 09:59:08;;;;;;;1.30;0.30;;;20.10;99.90;;;;;;5031899;28;20222;-76
2024/03/31 10:01:36;;;;;;;0.60;0.60;;;20.40;99.90;;;;;;5025078;28;20213;-77
2024/03/31 10:04:12;;;;;;;0.17;0.03;;;20.90;99.90;;;;;;5027829;28;20222;-66
2024/03/31 10:06:40;;;;;;;0.03;0.00;;;22.00;99.90;;;;;;5017790;28;20202;-64
2024/03/31 10:09:07;;;;;;;1.13;0.10;;;22.90;99.90;;;;;;5026094;28;20209;-66
2024/03/31 10:11:36;;;;;;;1.10;0.10;;;23.20;99.90;;;;;;5034327;28;20193;-76
2024/03/31 10:14:05;;;;;;;0.53;0.13;;;23.20;99.90;;;;;;5032988;28;20226;-74
2024/03/31 10:16:35;;;;;;;1.97;0.10;;;22.90;99.90;;;;;;5033626;28;20258;-65
2024/03/31 10:19:01;;;;;;;0.10;0.00;;;22.40;99.90;;;;;;5032688;28;20214;-65
2024/03/31 10:21:30;;;;;;;0.23;0.10;;;22.10;99.90;;;;;;5031828;28;20206;-66
2024/03/31 10:23:57;;;;;;;1.73;0.00;;;21.90;99.90;;;;;;5030661;28;20202;-66
2024/03/31 10:26:25;;;;;;;0.00;0.00;;;21.90;99.90;;;;;;5031983;28;20288;-65
2024/03/31 10:28:52;;;;;;;1.03;0.13;;;22.00;99.90;;;;;;5030154;28;20191;-61
2024/03/31 10:31:20;;;;;;;0.10;0.00;;;22.20;99.90;;;;;;5031484;28;20198;-63
2024/03/31 10:33:46;;;;;;;1.23;0.63;;;22.20;99.90;;;;;;5029519;28;20272;-63
2024/03/31 10:36:14;;;;;;;1.07;0.07;;;22.40;99.90;;;;;;5033167;28;20701;-63
2024/03/31 10:38:44;;;;;;;0.20;0.00;;;22.50;99.90;;;;;;5032812;28;20206;-63
2024/03/31 10:41:12;;;;;;;0.13;0.00;;;22.30;99.90;;;;;;5024989;28;20281;-63
2024/03/31 10:43:38;;;;;;;0.00;0.00;;;22.30;99.90;;;;;;5029320;28;20199;-63
2024/03/31 10:46:07;;;;;;;1.37;0.00;;;22.80;99.90;;;;;;5031674;28;20230;-63
2024/03/31 10:48:35;;;;;;;1.13;0.03;;;22.80;99.90;;;;;;5031859;28;20198;-67
2024/03/31 10:51:09;;;;;;;0.30;0.10;;;22.50;99.90;;;;;;5033031;28;20285;-67
2024/03/31 10:53:36;;;;;;;2.03;0.70;;;21.80;99.90;;;;;;5032342;28;20198;-66
2024/03/31 10:56:08;;;;;;;0.33;0.00;;;21.50;99.90;;;;;;5032312;28;20211;-66
2024/03/31 10:58:34;;;;;;;1.30;0.00;;;20.80;99.90;;;;;;5029545;28;20253;-68
2024/03/31 11:01:02;;;;;;;0.80;0.00;;;20.80;99.90;;;;;;5031221;28;20215;-68
2024/03/31 11:03:30;;;;;;;1.13;0.00;;;20.80;99.90;;;;;;5028443;28;20211;-67
2024/03/31 11:06:02;;;;;;;0.00;0.00;;;21.00;99.90;;;;;;5030945;28;20221;-68
2024/03/31 11:08:29;;;;;;;0.23;0.00;;;21.10;99.90;;;;;;5032123;28;20214;-67
2024/03/31 11:10:56;;;;;;;0.30;0.00;;;20.80;99.90;;;;;;5032738;28;20663;-66
2024/03/31 11:13:26;;;;;;;0.00;0.00;;;20.70;99.90;;;;;;5030173;28;20205;-66
2024/03/31 11:15:56;;;;;;;0.47;0.00;;;20.50;99.90;;;;;;5032725;28;20229;-65
2024/03/31 11:18:22;;;;;;;1.20;0.00;;;20.10;99.90;;;;;;5032307;28;20293;-65
2024/03/31 11:20:49;;;;;;;2.53;0.03;;;19.70;99.90;;;;;;5029841;28;20306;-65
2024/03/31 11:23:17;;;;;;;0.60;0.00;;;19.40;99.90;;;;;;5031636;28;20210;-67
2024/03/31 11:25:44;;;;;;;1.30;0.10;;;19.40;99.90;;;;;;5032501;28;20253;-67
2024/03/31 11:28:11;;;;;;;0.57;0.10;;;19.30;99.90;;;;;;5031937;28;20203;-67
2024/03/31 11:30:39;;;;;;;0.97;0.00;;;19.20;99.90;;;;;;5024421;28;20576;-65
2024/03/31 11:33:06;;;;;;;0.10;0.00;;;18.90;99.90;;;;;;5031682;28;20202;-68
2024/03/31 11:35:35;;;;;;;0.00;0.00;;;18.90;99.90;;;;;;5032552;28;20312;-64
2024/03/31 11:38:11;;;;;;;1.27;0.00;;;18.80;99.90;;;;;;5030912;28;20272;-65
2024/03/31 11:40:40;;;;;;;0.30;0.00;;;;;;;;;;5025392;28;20272;-67
2024/03/31 11:43:08;;;;;;;0.10;0.00;;;;;;;;;;5032273;28;20264;-66
2024/03/31 11:45:35;;;;;;;0.27;0.00;;;;;;;;;;5032193;28;20210;-67
2024/03/31 11:48:02;;;;;;;0.00;0.00;;;;;;;;;;5031129;28;20198;-67
2024/03/31 11:50:33;;;;;;;0.27;0.00;;;;;;;;;;5030158;28;20225;-66
2024/03/31 11:52:59;;;;;;;1.03;0.00;;;;;;;;;;5031652;28;20218;-67
2024/03/31 11:55:26;;;;;;;0.93;0.00;;;;;;;;;;5029447;28;20301;-69
2024/03/31 11:57:56;;;;;;;0.00;0.00;;;;;;;;;;5030869;28;20210;-68
2024/03/31 12:00:23;;;;;;;0.00;0.00;;;19.90;99.90;;;;;;5031601;28;20661;-66
2024/03/31 12:02:49;;;;;;;0.37;0.37;;;19.50;99.90;;;;;;5031208;28;20238;-65
2024/03/31 12:05:19;;;;;;;0.33;0.00;;;19.40;99.90;;;;;;5025370;28;20264;-67
2024/03/31 12:07:47;;;;;;;0.00;0.00;;;19.20;99.90;;;;;;5030321;28;20198;-66
2024/03/31 12:10:14;;;;;;;0.00;0.00;;;19.00;99.90;;;;;;5029023;28;20670;-69
2024/03/31 12:12:41;;;;;;;0.10;0.00;;;19.00;99.90;;;;;;5024224;28;20202;-65
2024/03/31 12:15:12;;;;;;;0.03;0.00;;;19.10;99.90;;;;;;5030705;28;20230;-66
2024/03/31 12:17:39;;;;;;;0.10;0.10;;;19.30;99.90;;;;;;5021509;28;20205;-67
2024/03/31 12:20:08;;;;;;;3.03;0.00;;;19.10;99.90;;;;;;5027009;28;20266;-64
2024/03/31 12:22:35;;;;;;;0.00;0.00;;;18.80;99.90;;;;;;5028457;28;20286;-63
2024/03/31 12:25:03;;;;;;;0.20;0.20;;;18.80;99.90;;;;;;5024774;28;20226;-63
2024/03/31 12:27:31;;;;;;;0.00;0.00;;;19.00;99.90;;;;;;5027026;28;20285;-64
2024/03/31 12:29:59;;;;;;;0.00;0.00;;;19.40;99.90;;;;;;5029704;28;20269;-64
2024/03/31 12:32:27;;;;;;;0.00;0.00;;;19.50;99.90;;;;;;5028911;28;20252;-64
2024/03/31 12:34:54;;;;;;;0.00;0.00;;;19.50;99.90;;;;;;5029224;28;20768;-64
2024/03/31 12:37:20;;;;;;;0.00;0.00;;;19.80;99.90;;;;;;5026812;28;20662;-64
2024/03/31 12:39:47;;;;;;;0.00;0.00;;;19.60;99.90;;;;;;5022710;28;20321;-64
2024/03/31 12:42:13;;;;;;;0.20;0.20;;;19.30;99.90;;;;;;5028370;28;20812;-63
2024/03/31 12:44:41;;;;;;;0.20;0.00;;;19.10;99.90;;;;;;5030488;28;20283;-64
2024/03/31 12:47:07;;;;;;;0.00;0.00;;;18.70;99.90;;;;;;5030255;28;20253;-63